Time;durP1;ratioP1;P1;durP2;ratioP2;P2;SDS_P1;SDS_P2;PMS_P1;PMS_P2;Temp;Humidity;BMP_temperature;BMP_pressure;BME280_temperature;BME280_humidity;BME280_pressure;Samples;Min_cycle;Max_cycle;Signal;HPM_P1;HPM_P2
2023/09/21 00:00:18;;;;;;;;;;;21.50;68.40;;;;;;5070444;28;1303;-68
2023/09/21 00:02:49;;;;;;;;;;;21.50;68.40;;;;;;5063532;28;932;-68
2023/09/21 00:05:21;;;;;;;;;;;21.50;68.40;;;;;;5070805;28;1393;-67
2023/09/21 00:07:47;;;;;;;;;;;21.50;68.40;;;;;;5069535;28;1498;-68
2023/09/21 00:10:13;;;;;;;;;;;21.50;68.40;;;;;;5069873;28;1966;-68
2023/09/21 00:12:38;;;;;;;;;;;21.50;68.40;;;;;;5065185;28;1205;-67
2023/09/21 00:15:08;;;;;;;;;;;21.50;68.40;;;;;;5068755;28;1480;-68
2023/09/21 00:17:34;;;;;;;;;;;21.50;68.50;;;;;;5070504;28;1330;-68
2023/09/21 00:20:00;;;;;;;;;;;21.50;68.40;;;;;;5069008;28;1358;-69
2023/09/21 00:22:25;;;;;;;;;;;21.50;68.50;;;;;;5070410;28;1464;-69
2023/09/21 00:24:52;;;;;;;;;;;21.50;68.50;;;;;;5068837;28;1405;-70
2023/09/21 00:27:17;;;;;;;;;;;21.50;68.50;;;;;;5068653;28;1239;-70
2023/09/21 00:29:43;;;;;;;;;;;21.50;68.50;;;;;;5068362;28;1179;-70
2023/09/21 00:32:08;;;;;;;;;;;21.50;68.50;;;;;;5069202;28;1906;-69
2023/09/21 00:34:35;;;;;;;;;;;21.50;68.50;;;;;;5069906;28;1243;-70
2023/09/21 00:37:00;;;;;;;;;;;21.50;68.50;;;;;;5069689;28;1465;-69
2023/09/21 00:39:26;;;;;;;;;;;21.50;68.50;;;;;;5069217;28;1450;-69
2023/09/21 00:41:51;;;;;;;;;;;21.50;68.50;;;;;;5067735;28;1382;-70
2023/09/21 00:44:18;;;;;;;;;;;21.50;68.50;;;;;;5068874;28;1433;-70
2023/09/21 00:46:44;;;;;;;;;;;21.50;68.50;;;;;;5068800;28;1810;-69
2023/09/21 00:49:10;;;;;;;;;;;21.50;68.50;;;;;;5070088;28;1431;-69
2023/09/21 00:51:35;;;;;;;;;;;21.50;68.50;;;;;;5068039;28;1910;-69
2023/09/21 00:54:05;;;;;;;;;;;21.50;68.60;;;;;;5069184;28;1294;-68
2023/09/21 00:56:30;;;;;;;;;;;21.50;69.30;;;;;;5064175;28;1154;-68
2023/09/21 00:58:57;;;;;;;;;;;21.40;68.60;;;;;;5068463;28;1236;-69
2023/09/21 01:01:27;;;;;;;;;;;21.50;69.30;;;;;;5069029;28;1360;-68
2023/09/21 01:03:53;;;;;;;;;;;21.50;68.60;;;;;;5067412;28;1456;-68
2023/09/21 01:06:19;;;;;;;;;;;21.50;68.70;;;;;;5065458;28;1358;-68
2023/09/21 01:08:44;;;;;;;;;;;21.50;68.70;;;;;;5067795;28;1439;-68
2023/09/21 01:11:10;;;;;;;;;;;21.50;68.70;;;;;;5061421;28;1985;-68
2023/09/21 01:13:36;;;;;;;;;;;21.50;68.70;;;;;;5062398;28;1517;-68
2023/09/21 01:16:02;;;;;;;;;;;21.50;68.70;;;;;;5068416;28;1441;-68
2023/09/21 01:18:28;;;;;;;;;;;21.50;68.70;;;;;;5062231;28;1411;-67
2023/09/21 01:20:58;;;;;;;;;;;21.50;68.70;;;;;;5069069;28;1315;-69
2023/09/21 01:23:34;;;;;;;;;;;21.50;68.70;;;;;;5068353;28;1119;-69
2023/09/21 01:26:01;;;;;;;;;;;21.50;68.70;;;;;;5069123;28;1271;-69
2023/09/21 01:28:29;;;;;;;;;;;21.50;68.70;;;;;;5068007;28;1413;-69
2023/09/21 01:30:56;;;;;;;;;;;21.50;68.70;;;;;;5069542;28;1902;-69
2023/09/21 01:33:23;;;;;;;;;;;21.50;68.80;;;;;;5051092;28;1287;-69
2023/09/21 01:35:48;;;;;;;;;;;21.50;68.80;;;;;;5068299;28;1322;-69
2023/09/21 01:38:14;;;;;;;;;;;21.50;68.80;;;;;;5068778;28;1257;-69
2023/09/21 01:40:39;;;;;;;;;;;21.50;68.80;;;;;;5061629;28;1470;-68
2023/09/21 01:43:08;;;;;;;;;;;21.50;69.50;;;;;;5066933;28;1361;-68
2023/09/21 01:45:34;;;;;;;;;;;21.50;68.80;;;;;;5066701;28;1419;-68
2023/09/21 01:48:00;;;;;;;;;;;21.50;68.80;;;;;;5067645;28;1197;-69
2023/09/21 01:50:27;;;;;;;;;;;21.50;68.80;;;;;;5066912;28;1874;-69
2023/09/21 01:52:53;;;;;;;;;;;21.50;68.80;;;;;;5065677;28;1414;-68
2023/09/21 01:55:18;;;;;;;;;;;21.50;68.90;;;;;;5067809;28;1360;-68
2023/09/21 01:57:44;;;;;;;;;;;21.50;68.90;;;;;;5066048;28;1587;-69
2023/09/21 02:00:12;;;;;;;;;;;21.50;68.90;;;;;;5067435;28;1390;-68
2023/09/21 02:02:39;;;;;;;;;;;21.50;68.90;;;;;;5068877;28;1427;-68
2023/09/21 02:05:04;;;;;;;;;;;21.50;68.90;;;;;;5060122;28;1333;-68
2023/09/21 02:07:30;;;;;;;;;;;21.50;68.90;;;;;;5065924;28;915;-68
2023/09/21 02:09:56;;;;;;;;;;;21.50;68.90;;;;;;5066781;28;1197;-68
2023/09/21 02:12:23;;;;;;;;;;;21.50;69.00;;;;;;5068445;28;1957;-68
2023/09/21 02:14:48;;;;;;;;;;;21.50;68.90;;;;;;5065418;28;1375;-68
2023/09/21 02:17:14;;;;;;;;;;;21.50;69.00;;;;;;5067438;28;1326;-68
2023/09/21 02:19:41;;;;;;;;;;;21.50;68.90;;;;;;5067669;28;1381;-67
2023/09/21 02:22:07;;;;;;;;;;;21.50;68.90;;;;;;5064787;28;1274;-67
2023/09/21 02:24:35;;;;;;;;;;;21.50;69.00;;;;;;5065773;28;1398;-67
2023/09/21 02:27:00;;;;;;;;;;;21.50;69.00;;;;;;5067303;28;1366;-68
2023/09/21 02:29:28;;;;;;;;;;;21.50;69.00;;;;;;5067337;28;1341;-68
2023/09/21 02:31:53;;;;;;;;;;;21.50;69.00;;;;;;5067655;28;1999;-68
2023/09/21 02:34:19;;;;;;;;;;;21.50;69.10;;;;;;5068539;28;1376;-67
2023/09/21 02:36:45;;;;;;;;;;;21.50;69.00;;;;;;5068774;28;1494;-68
2023/09/21 02:39:11;;;;;;;;;;;21.50;69.00;;;;;;5058309;28;1422;-68
2023/09/21 02:41:37;;;;;;;;;;;21.50;69.00;;;;;;5053127;28;1499;-70
2023/09/21 02:44:04;;;;;;;;;;;21.50;69.10;;;;;;5066472;28;1286;-70
2023/09/21 02:46:30;;;;;;;;;;;21.50;69.10;;;;;;5070590;28;1357;-68
2023/09/21 02:48:55;;;;;;;;;;;21.50;69.10;;;;;;5066936;28;1257;-69
2023/09/21 02:51:22;;;;;;;;;;;21.50;69.10;;;;;;5067368;28;1882;-70
2023/09/21 02:53:47;;;;;;;;;;;21.50;69.10;;;;;;5065902;28;1384;-69
2023/09/21 02:56:14;;;;;;;;;;;21.50;69.10;;;;;;5068346;28;1318;-67
2023/09/21 02:58:40;;;;;;;;;;;21.50;69.10;;;;;;5062997;28;952;-67
2023/09/21 03:01:06;;;;;;;;;;;21.50;69.10;;;;;;5067183;28;947;-67
2023/09/21 03:03:31;;;;;;;;;;;21.50;69.10;;;;;;5065994;28;1449;-67
2023/09/21 03:05:57;;;;;;;;;;;21.50;69.20;;;;;;5067240;28;1462;-67
2023/09/21 03:08:22;;;;;;;;;;;21.50;69.10;;;;;;5066312;28;1339;-68
2023/09/21 03:10:52;;;;;;;;;;;21.50;69.20;;;;;;5068036;28;1922;-67
2023/09/21 03:13:18;;;;;;;;;;;21.50;69.10;;;;;;5059703;28;1166;-67
2023/09/21 03:15:47;;;;;;;;;;;21.50;69.20;;;;;;5059942;28;1509;-68
2023/09/21 03:18:16;;;;;;;;;;;21.50;69.20;;;;;;5069855;28;1481;-68
2023/09/21 03:20:43;;;;;;;;;;;21.50;69.20;;;;;;5071371;28;879;-68
2023/09/21 03:23:09;;;;;;;;;;;21.50;69.20;;;;;;5064016;28;1367;-68
2023/09/21 03:25:40;;;;;;;;;;;21.50;69.20;;;;;;5069823;28;1445;-68
2023/09/21 03:28:13;;;;;;;;;;;21.50;69.20;;;;;;5069897;28;1457;-68
2023/09/21 03:30:39;;;;;;;;;;;21.50;69.20;;;;;;5063567;28;1898;-70
2023/09/21 03:33:05;;;;;;;;;;;21.50;69.30;;;;;;5074414;28;1372;-68
2023/09/21 03:35:31;;;;;;;;;;;21.50;69.30;;;;;;5071809;28;1405;-68
2023/09/21 03:37:57;;;;;;;;;;;21.50;69.30;;;;;;5073151;28;1111;-68
2023/09/21 03:40:25;;;;;;;;;;;21.50;69.30;;;;;;5069716;28;1234;-69
2023/09/21 03:42:52;;;;;;;;;;;21.50;69.30;;;;;;5063790;28;1271;-69
2023/09/21 03:45:24;;;;;;;;;;;21.50;69.30;;;;;;5066939;28;1311;-68
2023/09/21 03:47:51;;;;;;;;;;;21.50;69.30;;;;;;5072376;28;1304;-68
2023/09/21 03:50:17;;;;;;;;;;;21.50;69.30;;;;;;5071485;28;1906;-68
2023/09/21 03:52:43;;;;;;;;;;;21.50;69.40;;;;;;5070190;28;977;-68
2023/09/21 03:55:10;;;;;;;;;;;21.50;69.30;;;;;;5071773;28;1268;-69
2023/09/21 03:57:37;;;;;;;;;;;21.50;69.30;;;;;;5070521;28;1328;-69
2023/09/21 04:00:08;;;;;;;;;;;21.50;69.40;;;;;;5071287;28;1339;-69
2023/09/21 04:02:33;;;;;;;;;;;21.50;69.40;;;;;;5058877;28;2271;-68
2023/09/21 04:05:09;;;;;;;;;;;21.50;69.40;;;;;;5071734;28;1353;-69
2023/09/21 04:07:40;;;;;;;;;;;21.50;69.40;;;;;;5069922;28;1359;-68
2023/09/21 04:10:06;;;;;;;;;;;21.50;69.40;;;;;;5069034;28;1463;-67
2023/09/21 04:12:32;;;;;;;;;;;21.50;69.40;;;;;;5068880;28;1959;-68
2023/09/21 04:14:58;;;;;;;;;;;21.50;69.40;;;;;;5068168;28;1290;-69
2023/09/21 04:17:26;;;;;;;;;;;21.50;69.40;;;;;;5054011;28;1155;-68
2023/09/21 04:19:52;;;;;;;;;;;21.50;69.40;;;;;;5069306;28;1280;-69
2023/09/21 04:22:18;;;;;;;;;;;21.50;69.40;;;;;;5068152;28;1434;-68
2023/09/21 04:24:44;;;;;;;;;;;21.50;69.50;;;;;;5069373;28;1347;-67
2023/09/21 04:27:09;;;;;;;;;;;21.50;69.50;;;;;;5070117;28;1357;-68
2023/09/21 04:29:35;;;;;;;;;;;21.50;69.50;;;;;;5069954;28;1742;-68
2023/09/21 04:32:00;;;;;;;;;;;21.40;69.40;;;;;;5068125;28;1890;-69
2023/09/21 04:34:26;;;;;;;;;;;21.50;69.40;;;;;;5070942;28;1435;-68
2023/09/21 04:36:51;;;;;;;;;;;21.50;69.50;;;;;;5069425;28;1414;-68
2023/09/21 04:39:17;;;;;;;;;;;21.50;69.50;;;;;;5068080;28;1432;-69
2023/09/21 04:41:44;;;;;;;;;;;21.50;69.50;;;;;;5069728;28;1402;-68
2023/09/21 04:44:09;;;;;;;;;;;21.50;69.50;;;;;;5071611;28;1685;-67
2023/09/21 04:46:36;;;;;;;;;;;21.50;69.50;;;;;;5070017;28;1206;-67
2023/09/21 04:49:02;;;;;;;;;;;21.50;69.50;;;;;;5068449;28;1367;-68
2023/09/21 04:51:28;;;;;;;;;;;21.50;69.50;;;;;;5062234;28;1922;-68
2023/09/21 04:53:53;;;;;;;;;;;21.50;69.50;;;;;;5068308;28;1311;-68
2023/09/21 04:56:19;;;;;;;;;;;21.50;69.50;;;;;;5069843;28;1522;-68
2023/09/21 04:58:44;;;;;;;;;;;21.50;69.50;;;;;;5060266;28;1396;-68
2023/09/21 05:01:10;;;;;;;;;;;21.50;69.60;;;;;;5068488;28;1364;-68
2023/09/21 05:03:36;;;;;;;;;;;21.50;69.50;;;;;;5069643;28;1304;-68
2023/09/21 05:06:03;;;;;;;;;;;21.50;69.40;;;;;;5067975;28;1350;-68
2023/09/21 05:08:29;;;;;;;;;;;21.50;65.80;;;;;;5067845;28;1278;-67
2023/09/21 05:10:54;;;;;;;;;;;21.40;65.10;;;;;;5068245;28;1976;-68
2023/09/21 05:13:21;;;;;;;;;;;21.40;65.60;;;;;;5069120;28;1505;-68
2023/09/21 05:15:48;;;;;;;;;;;21.40;65.60;;;;;;5069492;28;1280;-68
2023/09/21 05:18:13;;;;;;;;;;;21.40;65.70;;;;;;5068302;28;1281;-69
2023/09/21 05:20:39;;;;;;;;;;;21.40;65.30;;;;;;5068587;28;1324;-68
2023/09/21 05:23:06;;;;;;;;;;;21.40;65.10;;;;;;5064343;28;1342;-68
2023/09/21 05:25:32;;;;;;;;;;;21.40;64.80;;;;;;5068188;28;1232;-68
2023/09/21 05:27:57;;;;;;;;;;;21.40;64.80;;;;;;5082179;28;1350;-68
2023/09/21 05:30:23;;;;;;;;;;;21.40;64.70;;;;;;5067279;28;1945;-68
2023/09/21 05:32:48;;;;;;;;;;;21.40;64.60;;;;;;5067197;28;1413;-68
2023/09/21 05:35:16;;;;;;;;;;;21.40;64.80;;;;;;5067582;28;1716;-68
2023/09/21 05:37:42;;;;;;;;;;;21.40;64.30;;;;;;5067780;28;1268;-68
2023/09/21 05:40:11;;;;;;;;;;;21.40;64.20;;;;;;5067963;28;1365;-68
2023/09/21 05:42:36;;;;;;;;;;;21.40;64.20;;;;;;5065984;28;1251;-68
2023/09/21 05:45:02;;;;;;;;;;;21.30;63.90;;;;;;5069413;28;1299;-68
2023/09/21 05:47:28;;;;;;;;;;;21.30;63.70;;;;;;5069248;28;1348;-68
2023/09/21 05:49:54;;;;;;;;;;;21.30;63.40;;;;;;5064799;28;1465;-68
2023/09/21 05:52:21;;;;;;;;;;;21.30;63.30;;;;;;5068068;28;1958;-68
2023/09/21 05:54:47;;;;;;;;;;;21.30;63.40;;;;;;5066847;28;1451;-68
2023/09/21 05:57:13;;;;;;;;;;;21.30;63.70;;;;;;5069057;28;1452;-68
2023/09/21 05:59:38;;;;;;;;;;;21.30;63.80;;;;;;5066522;28;1290;-68
2023/09/21 06:02:13;;;;;;;;;;;21.30;63.90;;;;;;5059934;28;1323;-68
2023/09/21 06:04:42;;;;;;;;;;;21.30;63.90;;;;;;5065074;28;1368;-68
2023/09/21 06:07:07;;;;;;;;;;;21.30;63.80;;;;;;5065959;28;1348;-67
2023/09/21 06:09:33;;;;;;;;;;;21.30;64.00;;;;;;5066893;28;1304;-68
2023/09/21 06:11:59;;;;;;;;;;;21.30;64.00;;;;;;5068579;28;1913;-69
2023/09/21 06:14:25;;;;;;;;;;;21.30;64.50;;;;;;5065588;28;1485;-68
2023/09/21 06:16:51;;;;;;;;;;;21.30;64.10;;;;;;5067847;28;1673;-68
2023/09/21 06:19:17;;;;;;;;;;;21.30;63.80;;;;;;5063465;28;1225;-68
2023/09/21 06:21:43;;;;;;;;;;;21.30;63.70;;;;;;5065779;28;1341;-68
2023/09/21 06:24:08;;;;;;;;;;;21.30;63.60;;;;;;5066096;28;1266;-68
2023/09/21 06:26:34;;;;;;;;;;;21.30;63.50;;;;;;5066847;28;1241;-68
2023/09/21 06:29:00;;;;;;;;;;;21.30;63.30;;;;;;5067686;28;1176;-68
2023/09/21 06:31:25;;;;;;;;;;;21.30;63.60;;;;;;5065379;28;1902;-69
2023/09/21 06:33:53;;;;;;;;;;;21.30;63.50;;;;;;5065175;28;1292;-67
2023/09/21 06:36:20;;;;;;;;;;;21.20;63.40;;;;;;5067682;28;1249;-68
2023/09/21 06:38:50;;;;;;;;;;;21.20;63.40;;;;;;5062413;28;1341;-70
2023/09/21 06:41:15;;;;;;;;;;;21.30;63.40;;;;;;5066457;28;1380;-67
2023/09/21 06:43:42;;;;;;;;;;;21.30;63.40;;;;;;5066328;28;1625;-67
2023/09/21 06:46:08;;;;;;;;;;;21.30;63.50;;;;;;5065127;28;1278;-68
2023/09/21 06:48:33;;;;;;;;;;;21.30;63.60;;;;;;5066408;28;1464;-68
2023/09/21 06:50:59;;;;;;;;;;;21.20;63.20;;;;;;5067407;28;1898;-67
2023/09/21 06:53:24;;;;;;;;;;;21.20;63.30;;;;;;5071661;28;1069;-68
2023/09/21 06:55:50;;;;;;;;;;;21.20;63.40;;;;;;5070300;28;1298;-68
2023/09/21 06:58:15;;;;;;;;;;;21.20;63.40;;;;;;5072018;28;1389;-68
2023/09/21 07:00:42;;;;;;;;;;;21.20;63.30;;;;;;5068977;28;1392;-69
2023/09/21 07:03:08;;;;;;;;;;;21.20;63.20;;;;;;5069871;28;1352;-68
2023/09/21 07:05:33;;;;;;;;;;;21.20;63.40;;;;;;5068465;28;1572;-68
2023/09/21 07:07:59;;;;;;;;;;;21.20;63.50;;;;;;5070307;28;1484;-67
2023/09/21 07:10:24;;;;;;;;;;;21.20;63.40;;;;;;5069474;28;1906;-67
2023/09/21 07:12:50;;;;;;;;;;;21.20;63.40;;;;;;5070573;28;1530;-68
2023/09/21 07:15:15;;;;;;;;;;;21.20;63.30;;;;;;5072067;28;1304;-67
2023/09/21 07:17:41;;;;;;;;;;;21.20;63.30;;;;;;5071462;28;1411;-68
2023/09/21 07:20:07;;;;;;;;;;;21.20;63.30;;;;;;5071894;28;1280;-67
2023/09/21 07:22:33;;;;;;;;;;;21.20;63.40;;;;;;5071734;28;1309;-67
2023/09/21 07:25:02;;;;;;;;;;;21.20;63.60;;;;;;5069965;28;1341;-67
2023/09/21 07:27:28;;;;;;;;;;;21.20;63.60;;;;;;5066598;28;1401;-68
2023/09/21 07:29:56;;;;;;;;;;;21.20;63.60;;;;;;5069092;28;2366;-69
2023/09/21 07:32:28;;;;;;;;;;;21.20;63.40;;;;;;5068047;28;1947;-68
2023/09/21 07:34:54;;;;;;;;;;;21.20;63.40;;;;;;5071271;28;1286;-68
2023/09/21 07:37:19;;;;;;;;;;;21.20;63.50;;;;;;5069549;28;1460;-68
2023/09/21 07:39:45;;;;;;;;;;;21.20;63.70;;;;;;5069087;28;2012;-68
2023/09/21 07:42:10;;;;;;;;;;;21.20;63.80;;;;;;5069594;28;1271;-68
2023/09/21 07:44:37;;;;;;;;;;;21.20;63.80;;;;;;5071214;28;1189;-67
2023/09/21 07:47:02;;;;;;;;;;;21.20;63.90;;;;;;5069835;28;1005;-67
2023/09/21 07:49:28;;;;;;;;;;;21.20;64.00;;;;;;5068190;28;1407;-67
2023/09/21 07:51:55;;;;;;;;;;;21.20;64.00;;;;;;5070452;28;1922;-67
2023/09/21 07:54:21;;;;;;;;;;;21.20;64.10;;;;;;5062613;28;2174;-67
2023/09/21 07:56:47;;;;;;;;;;;21.20;64.30;;;;;;5070060;28;1874;-68
2023/09/21 07:59:12;;;;;;;;;;;21.20;64.30;;;;;;5068549;28;1401;-67
2023/09/21 08:01:38;;;;;;;;;;;21.20;64.30;;;;;;5070894;28;1461;-67
2023/09/21 08:04:05;;;;;;;;;;;21.20;64.30;;;;;;5070292;28;1455;-68
2023/09/21 08:06:30;;;;;;;;;;;21.20;64.40;;;;;;5071040;28;1514;-67
2023/09/21 08:08:57;;;;;;;;;;;21.20;64.40;;;;;;5068790;28;1450;-67
2023/09/21 08:11:23;;;;;;;;;;;21.20;64.50;;;;;;5068059;28;1917;-67
2023/09/21 08:13:49;;;;;;;;;;;21.20;64.60;;;;;;5069465;28;1319;-67
2023/09/21 08:16:15;;;;;;;;;;;21.20;65.50;;;;;;5069797;28;1963;-67
2023/09/21 08:18:40;;;;;;;;;;;21.20;64.90;;;;;;5068308;28;2074;-67
2023/09/21 08:21:06;;;;;;;;;;;21.20;64.90;;;;;;5067541;28;1386;-67
2023/09/21 08:23:32;;;;;;;;;;;21.20;65.00;;;;;;5064139;28;1306;-67
2023/09/21 08:25:58;;;;;;;;;;;21.20;65.00;;;;;;5043587;28;1424;-66
2023/09/21 08:28:24;;;;;;;;;;;21.30;65.20;;;;;;5068618;28;1291;-66
2023/09/21 08:30:50;;;;;;;;;;;21.20;66.00;;;;;;5071254;28;2010;-66
2023/09/21 08:33:17;;;;;;;;;;;21.20;65.20;;;;;;5068943;28;1230;-67
2023/09/21 08:35:43;;;;;;;;;;;21.20;65.20;;;;;;5070191;28;1257;-67
2023/09/21 08:38:09;;;;;;;;;;;21.20;65.20;;;;;;5069762;28;1244;-66
2023/09/21 08:40:35;;;;;;;;;;;21.30;65.20;;;;;;5067714;28;1244;-67
2023/09/21 08:43:00;;;;;;;;;;;21.30;65.20;;;;;;5065867;28;1579;-67
2023/09/21 08:45:26;;;;;;;;;;;21.30;65.20;;;;;;5065565;28;1452;-67
2023/09/21 08:47:51;;;;;;;;;;;21.30;65.20;;;;;;5059317;28;1404;-66
2023/09/21 08:50:17;;;;;;;;;;;21.30;65.20;;;;;;5070483;28;1211;-66
2023/09/21 08:52:45;;;;;;;;;;;21.30;65.10;;;;;;5069229;28;1894;-67
2023/09/21 08:55:11;;;;;;;;;;;21.30;65.10;;;;;;5070396;28;1719;-67
2023/09/21 08:57:36;;;;;;;;;;;21.30;65.10;;;;;;5068151;28;1400;-67
2023/09/21 09:00:08;;;;;;;;;;;21.30;65.20;;;;;;5067793;28;1373;-66
2023/09/21 09:02:37;;;;;;;;;;;21.40;65.40;;;;;;5060107;28;1463;-66
2023/09/21 09:05:07;;;;;;;;;;;21.40;65.50;;;;;;5067189;28;1457;-67
2023/09/21 09:07:37;;;;;;;;;;;21.40;65.50;;;;;;5068407;28;1326;-67
2023/09/21 09:10:05;;;;;;;;;;;21.40;65.60;;;;;;5068409;28;1273;-67
2023/09/21 09:12:31;;;;;;;;;;;21.40;65.70;;;;;;5067794;28;1914;-67
2023/09/21 09:14:57;;;;;;;;;;;21.40;65.70;;;;;;5066005;28;1496;-66
2023/09/21 09:17:28;;;;;;;;;;;21.40;65.50;;;;;;5067912;28;1384;-67
2023/09/21 09:19:54;;;;;;;;;;;21.50;65.50;;;;;;5064865;28;1743;-67
2023/09/21 09:22:19;;;;;;;;;;;21.50;65.40;;;;;;5069893;28;1420;-66
2023/09/21 09:24:45;;;;;;;;;;;21.50;65.40;;;;;;5068166;28;1935;-66
2023/09/21 09:27:10;;;;;;;;;;;21.50;65.40;;;;;;5067296;28;2095;-67
2023/09/21 09:29:46;;;;;;;;;;;21.50;65.50;;;;;;5068729;28;926;-67
2023/09/21 09:32:14;;;;;;;;;;;21.50;65.50;;;;;;5060448;28;1968;-66
2023/09/21 09:34:39;;;;;;;;;;;21.50;66.40;;;;;;5065902;28;1388;-67
2023/09/21 09:37:05;;;;;;;;;;;21.50;65.70;;;;;;5066811;28;1629;-66
2023/09/21 09:39:33;;;;;;;;;;;21.50;65.80;;;;;;5067970;28;1370;-66
2023/09/21 09:41:58;;;;;;;;;;;21.60;66.00;;;;;;5067252;28;1531;-67
2023/09/21 09:44:24;;;;;;;;;;;21.60;66.10;;;;;;5052424;28;1385;-67
2023/09/21 09:46:52;;;;;;;;;;;21.60;65.90;;;;;;5066421;28;1255;-66
2023/09/21 09:49:18;;;;;;;;;;;21.60;65.60;;;;;;5066770;28;1246;-66
2023/09/21 09:51:46;;;;;;;;;;;21.70;65.40;;;;;;5060220;28;1906;-66
2023/09/21 09:54:16;;;;;;;;;;;21.70;65.40;;;;;;5069036;28;1443;-66
2023/09/21 09:56:41;;;;;;;;;;;21.70;65.10;;;;;;5064921;28;1257;-67
2023/09/21 09:59:11;;;;;;;;;;;21.80;65.20;;;;;;5060984;28;1407;-67
2023/09/21 10:01:41;;;;;;;;;;;21.80;65.20;;;;;;5065941;28;1890;-67
2023/09/21 10:04:07;;;;;;;;;;;21.80;65.10;;;;;;5067728;28;1328;-66
2023/09/21 10:06:35;;;;;;;;;;;21.80;65.00;;;;;;5066325;28;1246;-66
2023/09/21 10:09:02;;;;;;;;;;;21.80;64.90;;;;;;5066698;28;1367;-67
2023/09/21 10:11:28;;;;;;;;;;;21.80;64.90;;;;;;5067199;28;1973;-66
2023/09/21 10:13:55;;;;;;;;;;;21.80;64.90;;;;;;5068394;28;1384;-67
2023/09/21 10:16:23;;;;;;;;;;;21.80;64.90;;;;;;5068440;28;1258;-66
2023/09/21 10:18:53;;;;;;;;;;;21.80;64.80;;;;;;5064365;28;1111;-66
2023/09/21 10:21:24;;;;;;;;;;;21.80;65.40;;;;;;5068975;28;1344;-66
2023/09/21 10:23:59;;;;;;;;;;;21.90;64.60;;;;;;5068166;28;1326;-66
2023/09/21 10:26:25;;;;;;;;;;;21.80;64.40;;;;;;5066448;28;1248;-66
2023/09/21 10:28:53;;;;;;;;;;;21.90;63.30;;;;;;5067312;28;1460;-67
2023/09/21 10:31:20;;;;;;;;;;;21.90;63.50;;;;;;5067057;28;1910;-67
2023/09/21 10:33:51;;;;;;;;;;;21.90;63.40;;;;;;5066194;28;1545;-66
2023/09/21 10:36:23;;;;;;;;;;;21.90;63.00;;;;;;5068127;28;1544;-66
2023/09/21 10:39:12;;;;;;;;;;;21.90;62.80;;;;;;5066053;28;1365;-66
2023/09/21 10:41:45;;;;;;;;;;;21.90;62.30;;;;;;5053064;28;1496;-66
2023/09/21 10:44:12;;;;;;;;;;;21.90;61.30;;;;;;5065817;28;1378;-66
2023/09/21 10:46:38;;;;;;;;;;;21.90;61.80;;;;;;5066124;28;1255;-66
2023/09/21 10:49:03;;;;;;;;;;;22.00;61.80;;;;;;5065851;28;1435;-67
2023/09/21 10:51:29;;;;;;;;;;;22.00;61.80;;;;;;5066406;28;1871;-66
2023/09/21 10:53:56;;;;;;;;;;;22.00;61.90;;;;;;5067428;28;1355;-66
2023/09/21 10:56:22;;;;;;;;;;;22.00;61.90;;;;;;5068518;28;1281;-67
2023/09/21 10:58:48;;;;;;;;;;;22.10;62.00;;;;;;5058221;28;1521;-65
2023/09/21 11:01:13;;;;;;;;;;;22.00;61.90;;;;;;5067159;28;1442;-65
2023/09/21 11:03:42;;;;;;;;;;;22.00;61.90;;;;;;5067453;28;1350;-65
2023/09/21 11:06:07;;;;;;;;;;;22.00;62.10;;;;;;5066563;28;1427;-64
2023/09/21 11:08:33;;;;;;;;;;;22.10;62.20;;;;;;5058668;28;1398;-64
2023/09/21 11:10:58;;;;;;;;;;;22.10;62.30;;;;;;5066771;28;1959;-64
2023/09/21 11:13:26;;;;;;;;;;;22.10;62.10;;;;;;5068685;28;1253;-65
2023/09/21 11:15:55;;;;;;;;;;;22.10;61.90;;;;;;5068509;28;1691;-65
2023/09/21 11:18:20;;;;;;;;;;;22.10;62.70;;;;;;5067012;28;1326;-65
2023/09/21 11:20:46;;;;;;;;;;;22.10;61.70;;;;;;5068111;28;1395;-65
2023/09/21 11:23:12;;;;;;;;;;;22.10;61.70;;;;;;5064182;28;1243;-65
2023/09/21 11:25:37;;;;;;;;;;;22.10;61.50;;;;;;5065669;28;1283;-65
2023/09/21 11:28:03;;;;;;;;;;;22.10;61.30;;;;;;5067182;28;1458;-65
2023/09/21 11:30:29;;;;;;;;;;;22.10;60.70;;;;;;5060414;28;2003;-65
2023/09/21 11:32:55;;;;;;;;;;;22.10;60.80;;;;;;5066583;28;1321;-66
2023/09/21 11:35:21;;;;;;;;;;;22.10;61.10;;;;;;5065992;28;1378;-65
2023/09/21 11:37:47;;;;;;;;;;;22.10;60.90;;;;;;5067183;28;1314;-65
2023/09/21 11:40:13;;;;;;;;;;;22.10;60.60;;;;;;5068829;28;1351;-65
2023/09/21 11:42:43;;;;;;;;;;;22.20;61.00;;;;;;5067750;28;1254;-65
2023/09/21 11:45:18;;;;;;;;;;;22.20;60.90;;;;;;5069247;28;1316;-65
2023/09/21 11:47:47;;;;;;;;;;;22.20;60.90;;;;;;5069305;28;1339;-65
2023/09/21 11:50:18;;;;;;;;;;;22.20;60.90;;;;;;5071475;28;1469;-65
2023/09/21 11:52:44;;;;;;;;;;;22.20;60.90;;;;;;5063887;28;1914;-65
2023/09/21 11:55:11;;;;;;;;;;;22.20;60.20;;;;;;5069898;28;1368;-65
2023/09/21 11:57:37;;;;;;;;;;;22.20;60.20;;;;;;5067934;28;1457;-65
2023/09/21 12:00:13;;;;;;;;;;;22.20;60.20;;;;;;5067562;28;1572;-65
2023/09/21 12:02:38;;;;;;;;;;;22.20;60.30;;;;;;5070005;28;1330;-65
2023/09/21 12:05:10;;;;;;;;;;;22.20;60.20;;;;;;5067158;28;1324;-65
2023/09/21 12:07:36;;;;;;;;;;;22.20;59.90;;;;;;5067732;28;1322;-64
2023/09/21 12:10:01;;;;;;;;;;;22.20;60.00;;;;;;5067757;28;1410;-65
2023/09/21 12:12:27;;;;;;;;;;;22.30;59.50;;;;;;5069153;28;1894;-64
2023/09/21 12:14:52;;;;;;;;;;;22.20;58.90;;;;;;5068777;28;1958;-65
2023/09/21 12:17:19;;;;;;;;;;;22.30;58.80;;;;;;5068655;28;1147;-65
2023/09/21 12:19:45;;;;;;;;;;;22.30;59.50;;;;;;5068612;28;1477;-65
2023/09/21 12:22:12;;;;;;;;;;;22.30;58.50;;;;;;5067690;28;1482;-66
2023/09/21 12:24:37;;;;;;;;;;;22.30;58.80;;;;;;5061187;28;1470;-65
2023/09/21 12:27:06;;;;;;;;;;;22.30;59.70;;;;;;5067120;28;1480;-65
2023/09/21 12:29:33;;;;;;;;;;;22.30;58.90;;;;;;5069295;28;1311;-65
2023/09/21 12:31:59;;;;;;;;;;;22.30;58.70;;;;;;5067115;28;1921;-66
2023/09/21 12:34:25;;;;;;;;;;;22.30;58.80;;;;;;5069324;28;1397;-65
2023/09/21 12:36:51;;;;;;;;;;;22.30;58.20;;;;;;5069243;28;1586;-65
2023/09/21 12:39:18;;;;;;;;;;;22.30;58.10;;;;;;5067402;28;1446;-66
2023/09/21 12:41:44;;;;;;;;;;;22.30;57.90;;;;;;5068978;28;1361;-65
2023/09/21 12:44:10;;;;;;;;;;;22.30;58.00;;;;;;5069677;28;1415;-66
2023/09/21 12:46:36;;;;;;;;;;;22.30;58.00;;;;;;5061828;28;1408;-65
2023/09/21 12:49:04;;;;;;;;;;;22.40;58.10;;;;;;5067808;28;1471;-66
2023/09/21 12:51:30;;;;;;;;;;;22.40;58.10;;;;;;5069020;28;1894;-66
2023/09/21 12:53:56;;;;;;;;;;;22.40;57.60;;;;;;5067314;28;1569;-65
2023/09/21 12:56:22;;;;;;;;;;;22.40;57.80;;;;;;5061994;28;1347;-66
2023/09/21 12:58:48;;;;;;;;;;;22.40;57.80;;;;;;5068810;28;1518;-66
2023/09/21 13:01:15;;;;;;;;;;;22.40;57.70;;;;;;5069712;28;1311;-65
2023/09/21 13:03:41;;;;;;;;;;;22.40;57.60;;;;;;5067202;28;1395;-65
2023/09/21 13:06:06;;;;;;;;;;;22.40;57.90;;;;;;5069432;28;1280;-65
2023/09/21 13:08:32;;;;;;;;;;;22.40;57.90;;;;;;5062067;28;1336;-66
2023/09/21 13:10:57;;;;;;;;;;;22.40;58.00;;;;;;5068739;28;1969;-65
2023/09/21 13:13:23;;;;;;;;;;;22.40;56.90;;;;;;5068848;28;1198;-65
2023/09/21 13:15:49;;;;;;;;;;;22.40;56.70;;;;;;5062205;28;1379;-64
2023/09/21 13:18:15;;;;;;;;;;;22.40;57.00;;;;;;5069348;28;1404;-64
2023/09/21 13:20:42;;;;;;;;;;;22.40;57.10;;;;;;5068113;28;1174;-65
2023/09/21 13:23:08;;;;;;;;;;;22.40;56.00;;;;;;5068909;28;1290;-65
2023/09/21 13:25:37;;;;;;;;;;;22.40;56.50;;;;;;5061431;28;1516;-66
2023/09/21 13:28:02;;;;;;;;;;;22.40;56.60;;;;;;5068570;28;1158;-66
2023/09/21 13:30:28;;;;;;;;;;;22.40;56.50;;;;;;5065554;28;1847;-66
2023/09/21 13:32:54;;;;;;;;;;;22.40;56.30;;;;;;5066941;28;2257;-65
2023/09/21 13:35:19;;;;;;;;;;;22.40;56.40;;;;;;5052426;28;1428;-65
2023/09/21 13:37:45;;;;;;;;;;;22.40;56.40;;;;;;5067536;28;1916;-65
2023/09/21 13:40:11;;;;;;;;;;;22.40;56.50;;;;;;5069235;28;999;-65
2023/09/21 13:42:39;;;;;;;;;;;22.40;55.50;;;;;;5060544;28;1465;-66
2023/09/21 13:45:07;;;;;;;;;;;22.40;55.40;;;;;;5066604;28;1362;-68
2023/09/21 13:47:33;;;;;;;;;;;22.40;56.00;;;;;;5060263;28;1319;-67
2023/09/21 13:49:58;;;;;;;;;;;22.50;56.40;;;;;;5066853;28;1246;-69
2023/09/21 13:52:23;;;;;;;;;;;22.40;56.40;;;;;;5067112;28;1902;-69
2023/09/21 13:54:49;;;;;;;;;;;22.40;56.30;;;;;;5066019;28;1482;-67
2023/09/21 13:57:14;;;;;;;;;;;22.40;56.20;;;;;;5067053;28;1320;-67
2023/09/21 13:59:40;;;;;;;;;;;22.40;56.00;;;;;;5067003;28;1245;-66
2023/09/21 14:02:09;;;;;;;;;;;22.40;56.00;;;;;;5066185;28;1356;-67
2023/09/21 14:04:34;;;;;;;;;;;22.40;56.00;;;;;;5064168;28;1326;-66
2023/09/21 14:07:00;;;;;;;;;;;22.40;56.20;;;;;;5067199;28;1498;-66
2023/09/21 14:09:25;;;;;;;;;;;22.40;55.50;;;;;;5066350;28;1308;-67
2023/09/21 14:11:51;;;;;;;;;;;22.40;56.00;;;;;;5068323;28;1910;-67
2023/09/21 14:14:16;;;;;;;;;;;22.40;55.90;;;;;;5068263;28;1605;-67
2023/09/21 14:16:42;;;;;;;;;;;22.40;56.10;;;;;;5067820;28;1353;-67
2023/09/21 14:19:07;;;;;;;;;;;22.40;56.50;;;;;;5066089;28;1304;-67
2023/09/21 14:21:33;;;;;;;;;;;22.40;56.20;;;;;;5067606;28;1394;-67
2023/09/21 14:23:58;;;;;;;;;;;22.40;56.10;;;;;;5065012;28;1440;-69
2023/09/21 14:26:24;;;;;;;;;;;22.40;56.40;;;;;;5067614;28;1581;-69